Time;durP1;ratioP1;P1;durP2;ratioP2;P2;SDS_P1;SDS_P2;PMS_P1;PMS_P2;Temp;Humidity;BMP_temperature;BMP_pressure;BME280_temperature;BME280_humidity;BME280_pressure;Samples;Min_cycle;Max_cycle;Signal;HPM_P1;HPM_P2
2023/07/09 00:02:18;;;;;;;15.55;8.23;;;;;;;-143.49;100.00;65027.28;5076214;28;20031;-75
2023/07/09 00:04:43;;;;;;;12.75;8.25;;;;;;;-143.49;100.00;65027.28;5076308;28;20119;-72
2023/07/09 00:07:21;;;;;;;20.80;10.80;;;;;;;-143.49;100.00;65027.28;5076033;28;20123;-74
2023/07/09 00:09:46;;;;;;;13.48;8.60;;;;;;;-143.49;100.00;65027.28;5094394;28;20028;-73
2023/07/09 00:12:17;;;;;;;12.13;7.53;;;;;;;-143.49;100.00;65027.28;5093787;28;20058;-74
2023/07/09 00:14:43;;;;;;;14.48;8.30;;;;;;;-143.49;100.00;65027.28;5094309;28;20024;-74
2023/07/09 00:17:22;;;;;;;14.38;7.75;;;;;;;-143.49;100.00;65027.28;5094398;28;20024;-74
2023/07/09 00:19:48;;;;;;;13.68;8.07;;;;;;;-143.49;100.00;65027.28;5094775;28;20048;-73
2023/07/09 00:22:17;;;;;;;12.25;7.70;;;;;;;-143.49;100.00;65027.28;5080784;28;20490;-73
2023/07/09 00:24:50;;;;;;;15.68;7.75;;;;;;;-143.49;100.00;65027.28;5080753;28;20077;-73
2023/07/09 00:27:18;;;;;;;12.20;7.72;;;;;;;-143.49;100.00;65027.28;5080768;28;20020;-72
2023/07/09 00:29:44;;;;;;;13.80;8.30;;;;;;;-143.49;100.00;65027.28;5099119;28;20035;-72
2023/07/09 00:32:20;;;;;;;15.70;7.70;;;;;;;-143.49;100.00;65027.28;5075772;28;20471;-73
2023/07/09 00:34:48;;;;;;;14.93;7.22;;;;;;;-143.49;100.00;65027.28;5093911;28;20446;-73
2023/07/09 00:37:17;;;;;;;13.95;7.03;;;;;;;-143.49;100.00;65027.28;5081768;28;20024;-73
2023/07/09 00:39:43;;;;;;;14.48;7.00;;;;;;;-143.49;100.00;65027.28;5081461;28;20081;-73
2023/07/09 00:42:17;;;;;;;12.68;6.68;;;;;;;-143.49;100.00;65027.28;5100228;28;20027;-73
2023/07/09 00:44:45;;;;;;;12.50;7.00;;;;;;;-143.49;100.00;65027.28;5099125;28;20050;-73
2023/07/09 00:47:28;;;;;;;12.95;6.88;;;;;;;-143.49;100.00;65027.28;5098761;28;20111;-72
2023/07/09 00:50:03;;;;;;;14.27;7.20;;;;;;;-143.49;100.00;65027.28;5099270;28;20031;-73
2023/07/09 00:52:35;;;;;;;13.55;6.68;;;;;;;-143.49;100.00;65027.28;5080823;28;20031;-74
2023/07/09 00:55:08;;;;;;;13.80;6.80;;;;;;;-143.49;100.00;65027.28;5076797;28;20016;-73
2023/07/09 00:57:37;;;;;;;10.20;6.43;;;;;;;-143.49;100.00;65027.28;5075750;28;20277;-73
2023/07/09 01:00:09;;;;;;;10.90;6.65;;;;;;;-143.49;100.00;65027.28;5075457;28;20027;-73
2023/07/09 01:02:36;;;;;;;11.60;6.78;;;;;;;-143.49;100.00;65027.28;5093878;28;20498;-74
2023/07/09 01:05:03;;;;;;;10.63;6.75;;;;;;;-143.49;100.00;65027.28;5093836;28;20020;-74
2023/07/09 01:07:29;;;;;;;13.82;6.60;;;;;;;-143.49;100.00;65027.28;5075579;28;20399;-74
2023/07/09 01:09:55;;;;;;;11.20;6.82;;;;;;;-143.49;100.00;65027.28;5093718;28;20024;-74
2023/07/09 01:12:22;;;;;;;13.32;6.55;;;;;;;-143.49;100.00;65027.28;5075376;28;20028;-74
2023/07/09 01:14:53;;;;;;;12.98;6.78;;;;;;;-143.49;100.00;65027.28;5093445;28;20509;-74
2023/07/09 01:17:19;;;;;;;11.65;6.47;;;;;;;-143.49;100.00;65027.28;5075188;28;20023;-74
2023/07/09 01:19:49;;;;;;;13.68;6.18;;;;;;;-143.49;100.00;65027.28;5093333;28;20057;-74
2023/07/09 01:22:20;;;;;;;13.45;6.82;;;;;;;-143.49;100.00;65027.28;5074644;28;20039;-74
2023/07/09 01:25:01;;;;;;;15.88;7.07;;;;;;;-143.49;100.00;65027.28;5074858;28;20115;-74
2023/07/09 01:27:28;;;;;;;15.15;7.07;;;;;;;-143.49;100.00;65027.28;5075206;28;20020;-73
2023/07/09 01:29:55;;;;;;;14.90;7.13;;;;;;;-143.49;100.00;65027.28;5093366;28;20425;-73
2023/07/09 01:32:22;;;;;;;14.18;7.38;;;;;;;-143.49;100.00;65027.28;5093185;28;20490;-73
2023/07/09 01:34:50;;;;;;;14.25;7.43;;;;;;;-143.49;100.00;65027.28;5093251;28;20059;-73
2023/07/09 01:37:18;;;;;;;15.07;7.10;;;;;;;-143.49;100.00;65027.28;5093073;28;20479;-73
2023/07/09 01:39:44;;;;;;;12.82;7.55;;;;;;;-143.49;100.00;65027.28;5075043;28;20024;-73
2023/07/09 01:42:10;;;;;;;15.55;7.05;;;;;;;-143.49;100.00;65027.28;5074905;28;20086;-73
2023/07/09 01:44:38;;;;;;;10.63;6.90;;;;;;;-143.49;100.00;65027.28;5093073;28;20039;-73
2023/07/09 01:47:04;;;;;;;14.82;7.28;;;;;;;-143.49;100.00;65027.28;5093216;28;20133;-73
2023/07/09 01:49:32;;;;;;;10.80;6.82;;;;;;;-143.49;100.00;65027.28;5092982;28;20020;-75
2023/07/09 01:52:00;;;;;;;13.77;7.35;;;;;;;-143.49;100.00;65027.28;5074902;28;20028;-73
2023/07/09 01:54:27;;;;;;;16.02;7.55;;;;;;;-143.49;100.00;65027.28;5074787;28;20023;-74
2023/07/09 01:57:01;;;;;;;14.68;7.40;;;;;;;-143.49;100.00;65027.28;5091656;28;20028;-74
2023/07/09 01:59:27;;;;;;;15.60;7.13;;;;;;;-143.49;100.00;65027.28;5074743;28;20047;-73
2023/07/09 02:01:53;;;;;;;16.88;7.40;;;;;;;-143.49;100.00;65027.28;5074678;28;20031;-74
2023/07/09 02:04:18;;;;;;;13.40;7.72;;;;;;;-143.49;100.00;65027.28;5074559;28;20030;-74
2023/07/09 02:06:44;;;;;;;16.85;7.70;;;;;;;-143.49;100.00;65027.28;5092806;28;20114;-73
2023/07/09 02:09:09;;;;;;;12.18;6.88;;;;;;;-143.49;100.00;65027.28;5074949;28;20086;-74
2023/07/09 02:11:35;;;;;;;15.32;7.45;;;;;;;-143.49;100.00;65027.28;5092870;28;20024;-75
2023/07/09 02:14:00;;;;;;;15.55;7.35;;;;;;;-143.49;100.00;65027.28;5092627;28;20369;-74
2023/07/09 02:16:25;;;;;;;13.70;7.47;;;;;;;-143.49;100.00;65027.28;5074708;28;20118;-74
2023/07/09 02:18:51;;;;;;;15.57;7.30;;;;;;;-143.49;100.00;65027.28;5074523;28;20103;-73
2023/07/09 02:21:16;;;;;;;12.57;7.25;;;;;;;-143.49;100.00;65027.28;5092637;28;20020;-73
2023/07/09 02:23:41;;;;;;;12.75;7.15;;;;;;;-143.49;100.00;65027.28;5074502;28;20069;-74
2023/07/09 02:26:06;;;;;;;13.73;7.20;;;;;;;-143.49;100.00;65027.28;5092610;28;20073;-74
2023/07/09 02:28:32;;;;;;;10.30;7.13;;;;;;;-143.49;100.00;65027.28;5092609;28;20506;-73
2023/07/09 02:30:57;;;;;;;15.52;7.13;;;;;;;-143.49;100.00;65027.28;5092761;28;20020;-73
2023/07/09 02:33:23;;;;;;;13.95;7.38;;;;;;;-143.49;100.00;65027.28;5092666;28;20028;-74
2023/07/09 02:35:48;;;;;;;16.65;7.50;;;;;;;-143.49;100.00;65027.28;5095684;28;20027;-74
2023/07/09 02:38:14;;;;;;;13.10;7.30;;;;;;;-143.49;100.00;65027.28;5078003;28;20020;-74
2023/07/09 02:40:39;;;;;;;11.57;7.65;;;;;;;-143.49;100.00;65027.28;5095995;28;20035;-73
2023/07/09 02:43:04;;;;;;;12.57;8.02;;;;;;;-143.49;100.00;65027.28;5096159;28;20024;-73
2023/07/09 02:45:30;;;;;;;15.30;7.93;;;;;;;-143.49;100.00;65027.28;5095966;28;20020;-73
2023/07/09 02:47:55;;;;;;;16.27;7.47;;;;;;;-143.49;100.00;65027.28;5077755;28;20490;-73
2023/07/09 02:50:21;;;;;;;14.13;8.20;;;;;;;-143.49;100.00;65027.28;5077732;28;20046;-73
2023/07/09 02:52:46;;;;;;;14.20;7.82;;;;;;;-143.49;100.00;65027.28;5095819;28;20471;-73
2023/07/09 02:55:11;;;;;;;13.77;7.88;;;;;;;-143.49;100.00;65027.28;5095930;28;20558;-72
2023/07/09 02:57:37;;;;;;;16.05;7.93;;;;;;;-143.49;100.00;65027.28;5077603;28;20016;-73
2023/07/09 03:00:05;;;;;;;16.15;8.52;;;;;;;-143.49;100.00;65027.28;5095626;28;20479;-73
2023/07/09 03:02:30;;;;;;;15.25;7.93;;;;;;;-143.49;100.00;65027.28;5094342;28;20028;-73
2023/07/09 03:04:55;;;;;;;13.88;7.40;;;;;;;-143.49;100.00;65027.28;5077432;28;20509;-73
2023/07/09 03:07:21;;;;;;;13.13;7.65;;;;;;;-143.49;100.00;65027.28;5095291;28;20075;-74
2023/07/09 03:09:46;;;;;;;14.10;7.78;;;;;;;-143.49;100.00;65027.28;5095517;28;20051;-73
2023/07/09 03:12:11;;;;;;;18.90;8.13;;;;;;;-143.49;100.00;65027.28;5077328;28;20464;-74
2023/07/09 03:14:37;;;;;;;15.02;8.10;;;;;;;-143.49;100.00;65027.28;5095577;28;20031;-73
2023/07/09 03:17:02;;;;;;;13.80;7.65;;;;;;;-143.49;100.00;65027.28;5077285;28;20024;-73
2023/07/09 03:19:28;;;;;;;12.45;7.63;;;;;;;-143.49;100.00;65027.28;5095217;28;20398;-73
2023/07/09 03:21:53;;;;;;;10.98;7.93;;;;;;;-143.49;100.00;65027.28;5095373;28;20039;-73
2023/07/09 03:24:19;;;;;;;15.40;8.52;;;;;;;-143.49;100.00;65027.28;5077136;28;20432;-73
2023/07/09 03:26:48;;;;;;;15.38;7.40;;;;;;;-143.49;100.00;65027.28;5095083;28;20016;-74
2023/07/09 03:29:13;;;;;;;14.48;8.32;;;;;;;-143.49;100.00;65027.28;5095094;28;20103;-74
2023/07/09 03:31:39;;;;;;;13.75;8.10;;;;;;;-143.49;100.00;65027.28;5095163;28;20095;-74
2023/07/09 03:34:04;;;;;;;14.30;7.55;;;;;;;-143.49;100.00;65027.28;5076854;28;20027;-73
2023/07/09 03:36:30;;;;;;;14.27;8.05;;;;;;;-143.49;100.00;65027.28;5076828;28;20024;-73
2023/07/09 03:38:55;;;;;;;11.63;7.43;;;;;;;-143.49;100.00;65027.28;5094890;28;20024;-73
2023/07/09 03:41:20;;;;;;;14.52;8.43;;;;;;;-143.49;100.00;65027.28;5094895;28;20409;-73
2023/07/09 03:43:46;;;;;;;10.85;7.70;;;;;;;-143.49;100.00;65027.28;5094737;28;20467;-73
2023/07/09 03:46:12;;;;;;;12.63;7.85;;;;;;;-143.49;100.00;65027.28;5093773;28;20016;-72
2023/07/09 03:48:37;;;;;;;13.35;8.52;;;;;;;-143.49;100.00;65027.28;5094656;28;20435;-73
2023/07/09 03:51:03;;;;;;;15.00;8.48;;;;;;;-143.49;100.00;65027.28;5076496;28;20081;-73
2023/07/09 03:53:28;;;;;;;13.23;8.00;;;;;;;-143.49;100.00;65027.28;5094691;28;20024;-73
2023/07/09 03:55:55;;;;;;;16.77;7.78;;;;;;;-143.49;100.00;65027.28;5094678;28;20031;-74
2023/07/09 03:58:21;;;;;;;16.13;8.02;;;;;;;-143.49;100.00;65027.28;5076478;28;20058;-74
2023/07/09 04:00:47;;;;;;;13.10;8.05;;;;;;;-143.49;100.00;65027.28;5094420;28;20024;-73
2023/07/09 04:03:13;;;;;;;15.05;8.13;;;;;;;-143.49;100.00;65027.28;5076290;28;20028;-73
2023/07/09 04:05:38;;;;;;;15.43;8.23;;;;;;;-143.49;100.00;65027.28;5094262;28;20020;-72
2023/07/09 04:08:04;;;;;;;13.93;8.40;;;;;;;-143.49;100.00;65027.28;5094328;28;20518;-73
2023/07/09 04:10:31;;;;;;;16.10;8.18;;;;;;;-143.49;100.00;65027.28;5076283;28;20028;-73
2023/07/09 04:12:56;;;;;;;16.60;8.27;;;;;;;-143.49;100.00;65027.28;5076509;28;20551;-73
2023/07/09 04:15:21;;;;;;;12.15;8.20;;;;;;;-143.49;100.00;65027.28;5076224;28;20051;-73
2023/07/09 04:17:46;;;;;;;19.25;9.15;;;;;;;-143.49;100.00;65027.28;5094109;28;20028;-73
2023/07/09 04:20:13;;;;;;;13.88;8.63;;;;;;;-143.49;100.00;65027.28;5094173;28;20020;-74
2023/07/09 04:22:39;;;;;;;15.45;8.50;;;;;;;-143.49;100.00;65027.28;5094084;28;20395;-74
2023/07/09 04:25:06;;;;;;;14.77;8.75;;;;;;;-143.49;100.00;65027.28;5093973;28;20020;-74
2023/07/09 04:27:32;;;;;;;17.00;8.75;;;;;;;-143.49;100.00;65027.28;5094044;28;20093;-73
2023/07/09 04:29:57;;;;;;;15.85;8.48;;;;;;;-143.49;100.00;65027.28;5075680;28;20020;-74
2023/07/09 04:32:23;;;;;;;15.57;8.95;;;;;;;-143.49;100.00;65027.28;5094019;28;20024;-74
2023/07/09 04:34:48;;;;;;;18.58;9.02;;;;;;;-143.49;100.00;65027.28;5075675;28;20028;-74
2023/07/09 04:37:17;;;;;;;12.75;8.65;;;;;;;-143.49;100.00;65027.28;5094027;28;20032;-74
2023/07/09 04:39:43;;;;;;;16.27;8.10;;;;;;;-143.49;100.00;65027.28;5075645;28;20028;-73
2023/07/09 04:42:12;;;;;;;14.25;8.45;;;;;;;-143.49;100.00;65027.28;5093784;28;20412;-72
2023/07/09 04:44:38;;;;;;;17.08;8.35;;;;;;;-143.49;100.00;65027.28;5093750;28;20024;-73
2023/07/09 04:47:03;;;;;;;18.10;8.50;;;;;;;-143.49;100.00;65027.28;5075542;28;20403;-73
2023/07/09 04:49:29;;;;;;;20.52;8.43;;;;;;;-143.49;100.00;65027.28;5075416;28;20020;-73
2023/07/09 04:51:56;;;;;;;17.48;8.60;;;;;;;-143.49;100.00;65027.28;5093694;28;20032;-74
2023/07/09 04:54:22;;;;;;;19.27;8.77;;;;;;;-143.49;100.00;65027.28;5093531;28;20451;-74
2023/07/09 04:56:48;;;;;;;16.20;9.32;;;;;;;-143.49;100.00;65027.28;5075142;28;20023;-73
2023/07/09 04:59:14;;;;;;;15.52;8.63;;;;;;;-143.49;100.00;65027.28;5075437;28;20119;-74
2023/07/09 05:01:39;;;;;;;14.85;8.18;;;;;;;-143.49;100.00;65027.28;5093488;28;20020;-73
2023/07/09 05:04:04;;;;;;;15.48;9.13;;;;;;;-143.49;100.00;65027.28;5093391;28;20029;-73
2023/07/09 05:06:30;;;;;;;14.00;8.43;;;;;;;-143.49;100.00;65027.28;5093153;28;20079;-74
2023/07/09 05:08:55;;;;;;;16.92;8.98;;;;;;;-143.49;100.00;65027.28;5093313;28;20032;-72
2023/07/09 05:11:21;;;;;;;15.48;9.25;;;;;;;-143.49;100.00;65027.28;5075321;28;20027;-73
2023/07/09 05:13:46;;;;;;;17.70;8.57;;;;;;;-143.49;100.00;65027.28;5093468;28;20039;-72
2023/07/09 05:16:11;;;;;;;13.55;8.50;;;;;;;-143.49;100.00;65027.28;5093329;28;20113;-74
2023/07/09 05:18:37;;;;;;;17.80;9.40;;;;;;;-143.49;100.00;65027.28;5093246;28;20395;-74
2023/07/09 05:21:03;;;;;;;17.17;9.25;;;;;;;-143.49;100.00;65027.28;5075151;28;20024;-74
2023/07/09 05:23:28;;;;;;;14.45;9.20;;;;;;;-143.49;100.00;65027.28;5093209;28;20532;-73
2023/07/09 05:25:59;;;;;;;16.17;9.60;;;;;;;-143.49;100.00;65027.28;5093049;28;20036;-73
2023/07/09 05:28:24;;;;;;;19.45;10.05;;;;;;;-143.49;100.00;65027.28;5093191;28;20119;-74
2023/07/09 05:30:49;;;;;;;17.90;8.95;;;;;;;-143.49;100.00;65027.28;5093121;28;20098;-73
2023/07/09 05:33:18;;;;;;;16.85;9.30;;;;;;;-143.49;100.00;65027.28;5074992;28;20028;-73
2023/07/09 05:35:44;;;;;;;20.50;9.55;;;;;;;-143.49;100.00;65027.28;5074946;28;20467;-73
2023/07/09 05:38:09;;;;;;;13.20;8.90;;;;;;;-143.49;100.00;65027.28;5075609;28;20020;-74
2023/07/09 05:40:34;;;;;;;13.43;9.05;;;;;;;-143.49;100.00;65027.28;5093112;28;20031;-73
2023/07/09 05:43:00;;;;;;;14.90;8.77;;;;;;;-143.49;100.00;65027.28;5075018;28;20016;-73
2023/07/09 05:45:25;;;;;;;15.70;9.25;;;;;;;-143.49;100.00;65027.28;5092652;28;20526;-73
2023/07/09 05:47:50;;;;;;;15.05;9.43;;;;;;;-143.49;100.00;65027.28;5075207;28;20031;-73
2023/07/09 05:50:16;;;;;;;15.25;9.27;;;;;;;-143.49;100.00;65027.28;5093195;28;20387;-73
2023/07/09 05:52:41;;;;;;;15.45;9.35;;;;;;;-143.49;100.00;65027.28;5092956;28;20028;-73
2023/07/09 05:55:07;;;;;;;16.65;8.85;;;;;;;-143.49;100.00;65027.28;5074638;28;20475;-73
2023/07/09 05:57:32;;;;;;;12.75;8.43;;;;;;;-143.49;100.00;65027.28;5093024;28;20024;-73
2023/07/09 05:59:57;;;;;;;13.43;8.70;;;;;;;-143.49;100.00;65027.28;5093037;28;20020;-74
2023/07/09 06:02:22;;;;;;;18.38;9.10;;;;;;;-143.49;100.00;65027.28;5074742;28;20024;-74
2023/07/09 06:04:51;;;;;;;14.02;9.02;;;;;;;-143.49;100.00;65027.28;5092791;28;20047;-74
2023/07/09 06:07:18;;;;;;;14.57;8.25;;;;;;;-143.49;100.00;65027.28;5092596;28;20036;-73
2023/07/09 06:09:45;;;;;;;13.95;8.63;;;;;;;-143.49;100.00;65027.28;5076434;28;20024;-73
2023/07/09 06:12:11;;;;;;;14.43;8.00;;;;;;;-143.49;100.00;65027.28;5096838;28;20387;-73
2023/07/09 06:14:36;;;;;;;12.88;7.90;;;;;;;-143.49;100.00;65027.28;5097901;28;20024;-72
2023/07/09 06:17:02;;;;;;;13.65;8.18;;;;;;;-143.49;100.00;65027.28;5097913;28;20020;-73
2023/07/09 06:19:27;;;;;;;16.63;8.52;;;;;;;-143.49;100.00;65027.28;5097319;28;20023;-74
2023/07/09 06:21:52;;;;;;;12.77;7.75;;;;;;;-143.49;100.00;65027.28;5096914;28;20070;-74
2023/07/09 06:24:18;;;;;;;15.48;8.00;;;;;;;-143.49;100.00;65027.28;5078286;28;20051;-74
2023/07/09 06:26:43;;;;;;;15.57;7.30;;;;;;;-143.49;100.00;65027.28;5078314;28;20110;-73
2023/07/09 06:29:09;;;;;;;17.98;7.75;;;;;;;-143.49;100.00;65027.28;5096464;28;20372;-73
2023/07/09 06:31:35;;;;;;;14.93;7.80;;;;;;;-143.49;100.00;65027.28;5096388;28;20031;-73
2023/07/09 06:34:01;;;;;;;11.07;7.32;;;;;;;-143.49;100.00;65027.28;5096346;28;20043;-74
2023/07/09 06:36:26;;;;;;;13.40;7.38;;;;;;;-143.49;100.00;65027.28;5078195;28;20012;-73
2023/07/09 06:38:52;;;;;;;15.05;7.38;;;;;;;-143.49;100.00;65027.28;5099034;28;20028;-73
2023/07/09 06:41:17;;;;;;;13.60;7.10;;;;;;;-143.49;100.00;65027.28;5098962;28;20103;-73
2023/07/09 06:43:42;;;;;;;11.90;7.28;;;;;;;-143.49;100.00;65027.28;5099674;28;20057;-73
2023/07/09 06:46:10;;;;;;;11.80;6.65;;;;;;;-143.49;100.00;65027.28;5081114;28;20027;-73
2023/07/09 06:48:36;;;;;;;11.80;7.00;;;;;;;-143.49;100.00;65027.28;5081591;28;20077;-73
2023/07/09 06:51:01;;;;;;;11.15;6.43;;;;;;;-143.49;100.00;65027.28;5100031;28;20028;-73
2023/07/09 06:53:28;;;;;;;13.15;6.75;;;;;;;-143.49;100.00;65027.28;5099564;28;20087;-73
2023/07/09 06:55:58;;;;;;;11.38;6.50;;;;;;;-143.49;100.00;65027.28;5081180;28;20020;-73
2023/07/09 06:58:27;;;;;;;12.60;6.78;;;;;;;-143.49;100.00;65027.28;5080409;28;20024;-73
2023/07/09 07:00:53;;;;;;;13.52;6.30;;;;;;;-143.49;100.00;65027.28;5097642;28;20486;-73
2023/07/09 07:03:19;;;;;;;13.50;6.57;;;;;;;-143.49;100.00;65027.28;5096367;28;20031;-74
2023/07/09 07:05:45;;;;;;;9.85;6.40;;;;;;;-143.49;100.00;65027.28;5077567;28;20020;-74
2023/07/09 07:08:15;;;;;;;11.38;6.32;;;;;;;-143.49;100.00;65027.28;5096015;28;20105;-75
2023/07/09 07:10:40;;;;;;;12.50;6.90;;;;;;;-143.49;100.00;65027.28;5077985;28;20372;-73
2023/07/09 07:13:05;;;;;;;11.60;6.75;;;;;;;-143.49;100.00;65027.28;5096054;28;20027;-73
2023/07/09 07:15:31;;;;;;;9.95;5.93;;;;;;;-143.49;100.00;65027.28;5096038;28;20038;-74
2023/07/09 07:17:56;;;;;;;15.10;6.35;;;;;;;-143.49;100.00;65027.28;5096327;28;20047;-74
2023/07/09 07:20:21;;;;;;;12.60;6.80;;;;;;;-143.49;100.00;65027.28;5077731;28;20126;-74
2023/07/09 07:22:47;;;;;;;14.77;6.47;;;;;;;-143.49;100.00;65027.28;5095519;28;20059;-73
2023/07/09 07:25:13;;;;;;;13.25;7.03;;;;;;;-143.49;100.00;65027.28;5095661;28;20020;-73
2023/07/09 07:27:38;;;;;;;12.95;7.10;;;;;;;-143.49;100.00;65027.28;5077450;28;20111;-74
2023/07/09 07:30:06;;;;;;;13.32;7.50;;;;;;;-143.49;100.00;65027.28;5077555;28;20024;-73
2023/07/09 07:32:32;;;;;;;13.98;8.32;;;;;;;-143.49;100.00;65027.28;5096463;28;20365;-74
2023/07/09 07:34:57;;;;;;;14.18;7.95;;;;;;;-143.49;100.00;65027.28;5095468;28;20027;-74
2023/07/09 07:37:22;;;;;;;12.07;7.40;;;;;;;-143.49;100.00;65027.28;5095133;28;20024;-74
2023/07/09 07:39:48;;;;;;;12.93;7.90;;;;;;;-143.49;100.00;65027.28;5095122;28;20096;-74
2023/07/09 07:42:13;;;;;;;15.80;8.40;;;;;;;-143.49;100.00;65027.28;5076977;28;20124;-74
2023/07/09 07:44:39;;;;;;;23.92;7.70;;;;;;;-143.49;100.00;65027.28;5094928;28;20206;-74
2023/07/09 07:47:05;;;;;;;18.17;8.57;;;;;;;-143.49;100.00;65027.28;5094776;28;20069;-75
2023/07/09 07:49:30;;;;;;;11.45;7.35;;;;;;;-143.49;100.00;65027.28;5094833;28;20016;-75
2023/07/09 07:51:56;;;;;;;12.20;7.47;;;;;;;-143.49;100.00;65027.28;5076581;28;20104;-75
2023/07/09 07:54:21;;;;;;;13.13;7.10;;;;;;;-143.49;100.00;65027.28;5094478;28;20016;-74
2023/07/09 07:56:47;;;;;;;11.25;7.05;;;;;;;-143.49;100.00;65027.28;5076284;28;20012;-74
2023/07/09 07:59:12;;;;;;;11.23;7.13;;;;;;;-143.49;100.00;65027.28;5094555;28;20382;-74
2023/07/09 08:01:38;;;;;;;17.80;8.63;;;;;;;-143.49;100.00;65027.28;5094329;28;20038;-74
2023/07/09 08:04:05;;;;;;;14.32;7.78;;;;;;;-143.49;100.00;65027.28;5094414;28;20103;-75
2023/07/09 08:06:31;;;;;;;15.18;7.50;;;;;;;-143.49;100.00;65027.28;5075943;28;20113;-74
2023/07/09 08:08:57;;;;;;;13.52;7.72;;;;;;;-143.49;100.00;65027.28;5076107;28;20556;-74
2023/07/09 08:11:23;;;;;;;17.60;7.75;;;;;;;-143.49;100.00;65027.28;5094151;28;20023;-74
2023/07/09 08:13:49;;;;;;;16.00;9.10;;;;;;;-143.49;100.00;65027.28;5092873;28;20051;-74
2023/07/09 08:16:14;;;;;;;17.15;9.55;;;;;;;-143.49;100.00;65027.28;5076540;28;20502;-74
2023/07/09 08:18:39;;;;;;;14.70;8.68;;;;;;;-143.49;100.00;65027.28;5094931;28;20506;-74
2023/07/09 08:21:05;;;;;;;19.08;10.40;;;;;;;-143.49;100.00;65027.28;5095575;28;20088;-74
2023/07/09 08:23:30;;;;;;;23.73;13.32;;;;;;;-143.49;100.00;65027.28;5094965;28;20024;-74
2023/07/09 08:25:58;;;;;;;21.70;13.10;;;;;;;-143.49;100.00;65027.28;5096381;28;20027;-73
2023/07/09 08:28:24;;;;;;;24.25;13.82;;;;;;;-143.49;100.00;65027.28;5099445;28;20459;-73
2023/07/09 08:30:52;;;;;;;18.02;12.02;;;;;;;-143.49;100.00;65027.28;5080398;28;20034;-73
2023/07/09 08:33:18;;;;;;;16.70;10.60;;;;;;;-143.49;100.00;65027.28;5080210;28;20020;-73
2023/07/09 08:35:43;;;;;;;18.45;9.82;;;;;;;-143.49;100.00;65027.28;5098972;28;20028;-73
2023/07/09 08:38:09;;;;;;;17.50;8.95;;;;;;;-143.49;100.00;65027.28;5079463;28;20058;-74
2023/07/09 08:40:39;;;;;;;14.52;9.50;;;;;;;-143.49;100.00;65027.28;5093791;28;20027;-75
2023/07/09 08:43:18;;;;;;;13.43;9.38;;;;;;;-143.49;100.00;65027.28;5075886;28;20027;-76
2023/07/09 08:45:54;;;;;;;24.15;10.32;;;;;;;-143.49;100.00;65027.28;5075506;28;20481;-75
2023/07/09 08:48:31;;;;;;;18.83;10.25;;;;;;;-143.49;100.00;65027.28;5093529;28;20031;-75
2023/07/09 08:51:03;;;;;;;13.05;8.80;;;;;;;-143.49;100.00;65027.28;5093629;28;20391;-75
2023/07/09 08:53:50;;;;;;;15.35;10.55;;;;;;;-143.49;100.00;65027.28;5075585;28;20414;-75
2023/07/09 08:56:16;;;;;;;13.50;9.48;;;;;;;-143.49;100.00;65027.28;5075378;28;20016;-75
2023/07/09 08:58:43;;;;;;;13.40;8.63;;;;;;;-143.49;100.00;65027.28;5075551;28;20031;-76
2023/07/09 09:01:21;;;;;;;19.67;9.15;;;;;;;-143.49;100.00;65027.28;5093417;28;20034;-75
2023/07/09 09:04:05;;;;;;;20.00;8.70;;;;;;;-143.49;100.00;65027.28;5075421;28;20425;-75
2023/07/09 09:06:31;;;;;;;15.43;9.15;;;;;;;-143.49;100.00;65027.28;5093089;28;20031;-74
2023/07/09 09:09:24;;;;;;;15.05;8.98;;;;;;;-143.49;100.00;65027.28;5055381;28;20406;-75
2023/07/09 09:12:17;;;;;;;14.73;9.90;;;;;;;-143.49;100.00;65027.28;5073206;28;20024;-75
2023/07/09 09:14:44;;;;;;;13.52;8.75;;;;;;;-143.49;100.00;65027.28;5062234;28;20062;-74
2023/07/09 09:17:14;;;;;;;16.33;9.50;;;;;;;-143.49;100.00;65027.28;5073183;28;20024;-75
2023/07/09 09:20:04;;;;;;;15.20;9.10;;;;;;;-143.49;100.00;65027.28;5073111;28;20111;-75
2023/07/09 09:22:43;;;;;;;14.43;8.30;;;;;;;-143.49;100.00;65027.28;5045524;28;20123;-75
2023/07/09 09:25:14;;;;;;;15.32;8.75;;;;;;;-143.49;100.00;65027.28;5072987;28;20545;-76
2023/07/09 09:27:39;;;;;;;14.48;9.32;;;;;;;-143.49;100.00;65027.28;5073063;28;20032;-74
2023/07/09 09:30:13;;;;;;;20.13;9.93;;;;;;;-143.49;100.00;65027.28;5073088;28;20024;-75
2023/07/09 09:32:52;;;;;;;15.63;9.70;;;;;;;-143.49;100.00;65027.28;5054963;28;20082;-74
2023/07/09 09:35:20;;;;;;;15.38;9.15;;;;;;;-143.49;100.00;65027.28;5073014;28;20023;-75
2023/07/09 09:37:55;;;;;;;16.58;9.00;;;;;;;-143.49;100.00;65027.28;5054936;28;20085;-75
2023/07/09 09:40:23;;;;;;;14.40;8.07;;;;;;;-143.49;100.00;65027.28;5072987;28;20107;-74
2023/07/09 09:42:49;;;;;;;17.95;9.65;;;;;;;-143.49;100.00;65027.28;5054866;28;20032;-75
2023/07/09 09:45:20;;;;;;;18.42;8.43;;;;;;;-143.49;100.00;65027.28;5076196;28;20047;-76
2023/07/09 09:47:47;;;;;;;15.35;9.32;;;;;;;-143.49;100.00;65027.28;5077015;28;20036;-75
2023/07/09 09:50:15;;;;;;;14.88;8.77;;;;;;;-143.49;100.00;65027.28;5076698;28;20476;-74
2023/07/09 09:52:41;;;;;;;14.65;8.30;;;;;;;-143.49;100.00;65027.28;5077263;28;20031;-75
2023/07/09 09:55:19;;;;;;;13.88;8.00;;;;;;;-143.49;100.00;65027.28;5058877;28;20024;-75
2023/07/09 09:57:52;;;;;;;10.80;6.50;;;;;;;-143.49;100.00;65027.28;5059021;28;20450;-76
2023/07/09 10:00:22;;;;;;;14.00;7.40;;;;;;;-143.49;100.00;65027.28;5076766;28;20059;-75
2023/07/09 10:02:48;;;;;;;13.18;7.55;;;;;;;-143.49;100.00;65027.28;5076904;28;20127;-75
2023/07/09 10:05:15;;;;;;;15.82;7.75;;;;;;;-143.49;100.00;65027.28;5076750;28;20079;-75
2023/07/09 10:07:59;;;;;;;13.18;7.95;;;;;;;-143.49;100.00;65027.28;5057815;28;20055;-75
2023/07/09 10:10:29;;;;;;;11.02;7.20;;;;;;;-143.49;100.00;65027.28;5075325;28;20452;-75
2023/07/09 10:13:22;;;;;;;10.10;6.75;;;;;;;-143.49;100.00;65027.28;5075193;28;20044;-75
2023/07/09 10:16:02;;;;;;;14.20;7.63;;;;;;;-143.49;100.00;65027.28;5074977;28;20471;-75
2023/07/09 10:18:38;;;;;;;11.88;8.23;;;;;;;-143.49;100.00;65027.28;5075141;28;20027;-75
2023/07/09 10:21:18;;;;;;;12.73;6.78;;;;;;;-143.49;100.00;65027.28;5075080;28;20035;-75
2023/07/09 10:23:59;;;;;;;17.88;7.63;;;;;;;-143.49;100.00;65027.28;5075073;28;20023;-75
2023/07/09 10:27:11;;;;;;;13.02;7.75;;;;;;;-143.49;100.00;65027.28;5056802;28;20464;-75
2023/07/09 10:29:50;;;;;;;17.48;8.05;;;;;;;-143.49;100.00;65027.28;5055160;28;20068;-74
2023/07/09 10:32:33;;;;;;;12.10;8.85;;;;;;;-143.49;100.00;65027.28;5074859;28;20043;-75
2023/07/09 10:35:13;;;;;;;13.52;8.40;;;;;;;-143.49;100.00;65027.28;5075292;28;20095;-75
2023/07/09 10:38:05;;;;;;;11.38;7.40;;;;;;;-143.49;100.00;65027.28;5056808;28;20442;-75
2023/07/09 10:40:39;;;;;;;14.27;8.20;;;;;;;-143.49;100.00;65027.28;5056533;28;20024;-75
2023/07/09 10:43:10;;;;;;;12.93;7.97;;;;;;;-143.49;100.00;65027.28;5074755;28;20082;-75
2023/07/09 10:45:44;;;;;;;15.55;8.18;;;;;;;-143.49;100.00;65027.28;5074749;28;20024;-75
2023/07/09 10:48:16;;;;;;;14.90;8.65;;;;;;;-143.49;100.00;65027.28;5055411;28;20021;-74
2023/07/09 10:50:47;;;;;;;17.50;7.78;;;;;;;-143.49;100.00;65027.28;5056039;28;20024;-74
2023/07/09 10:53:24;;;;;;;11.73;6.78;;;;;;;-143.49;100.00;65027.28;5056532;28;20044;-75
2023/07/09 10:56:00;;;;;;;13.73;6.45;;;;;;;-143.49;100.00;65027.28;5073546;28;20023;-74
2023/07/09 10:59:04;;;;;;;12.85;6.30;;;;;;;-143.49;100.00;65027.28;5073555;28;20101;-74
2023/07/09 11:01:39;;;;;;;13.93;5.25;;;;;;;-143.49;100.00;65027.28;5056314;28;20388;-75
2023/07/09 11:04:33;;;;;;;13.80;6.20;;;;;;;-143.49;100.00;65027.28;5074086;28;20020;-75
2023/07/09 11:07:03;;;;;;;9.20;4.70;;;;;;;-143.49;100.00;65027.28;5041630;28;1045461;-75
2023/07/09 11:09:32;;;;;;;12.10;4.38;;;;;;;-143.49;100.00;65027.28;5095099;28;20352;-74